SAS2983 ENCN-EKCH
Flight info
| Callsign | SAS2983 |
|---|---|
| Flight time | N/A |
| Altitude | 30000 |
| Route | AMSEV L621 AAL P615 LUTUS/N0430F290 T55 TESPI |
| Aircraft | CRJ9/M-SDFGIRWY/S |
Departure
| Time | 2026-04-28 16:57 |
|---|---|
| Airport | Kristiansand Airport (ENCN) |
Arrival
| Time | N/A |
|---|---|
| Airport | Copenhagen Kastrup Airport (EKCH) |
| Time | Latitude | Longitude | Altitude | Speed | Heading |
|---|---|---|---|---|---|
| 2026-04-28 16:30 | 58.20148 | 8.07455 | 53 ft | 0 kts | 302° |
| 2026-04-28 16:47 | 58.20146 | 8.07460 | 51 ft | 3 kts | 302° |
| 2026-04-28 16:48 | 58.20136 | 8.07491 | 50 ft | 4 kts | 303° |
| 2026-04-28 16:48 | 58.20121 | 8.07533 | 55 ft | 4 kts | 304° |
| 2026-04-28 16:48 | 58.20118 | 8.07541 | 53 ft | 1 kts | 304° |
| 2026-04-28 16:51 | 58.20121 | 8.07535 | 55 ft | 2 kts | 325° |
| 2026-04-28 16:52 | 58.20165 | 8.07561 | 56 ft | 15 kts | 30° |
| 2026-04-28 16:52 | 58.20259 | 8.07684 | 56 ft | 17 kts | 35° |
| 2026-04-28 16:52 | 58.20342 | 8.07836 | 56 ft | 17 kts | 51° |
| 2026-04-28 16:52 | 58.20413 | 8.08012 | 56 ft | 17 kts | 52° |
| 2026-04-28 16:53 | 58.20479 | 8.08194 | 53 ft | 17 kts | 83° |
| 2026-04-28 16:53 | 58.20428 | 8.08377 | 55 ft | 16 kts | 127° |
| 2026-04-28 16:53 | 58.20426 | 8.08547 | 56 ft | 14 kts | 40° |
| 2026-04-28 16:53 | 58.20551 | 8.08708 | 53 ft | 29 kts | 34° |
| 2026-04-28 16:54 | 58.20734 | 8.08952 | 58 ft | 32 kts | 35° |
| 2026-04-28 16:54 | 58.20915 | 8.09194 | 60 ft | 31 kts | 34° |
| 2026-04-28 16:54 | 58.21086 | 8.09417 | 56 ft | 22 kts | 30° |
| 2026-04-28 16:54 | 58.21155 | 8.09469 | 52 ft | 7 kts | 64° |
| 2026-04-28 16:55 | 58.21155 | 8.09498 | 54 ft | 0 kts | 153° |
| 2026-04-28 16:55 | 58.21143 | 8.09491 | 55 ft | 4 kts | 209° |
| 2026-04-28 16:55 | 58.21138 | 8.09486 | 53 ft | 0 kts | 212° |
| 2026-04-28 16:56 | 58.21037 | 8.09354 | 53 ft | 49 kts | 215° |
| 2026-04-28 16:57 | 58.20576 | 8.08741 | 56 ft | 111 kts | 215° |
| 2026-04-28 16:57 | 58.19807 | 8.07728 | 82 ft | 154 kts | 212° |
| 2026-04-28 16:57 | 58.18898 | 8.06522 | 576 ft | 162 kts | 211° |
| 2026-04-28 16:57 | 58.17842 | 8.05829 | 1328 ft | 156 kts | 197° |
| 2026-04-28 16:58 | 58.16760 | 8.05362 | 1951 ft | 163 kts | 198° |
| 2026-04-28 16:58 | 58.15664 | 8.04871 | 2564 ft | 164 kts | 198° |
| 2026-04-28 16:58 | 58.14543 | 8.04361 | 3130 ft | 167 kts | 199° |
| 2026-04-28 16:58 | 58.13389 | 8.03822 | 3644 ft | 174 kts | 199° |
| 2026-04-28 16:59 | 58.12194 | 8.03262 | 4135 ft | 179 kts | 198° |
| 2026-04-28 16:59 | 58.10974 | 8.02684 | 4715 ft | 180 kts | 197° |
| 2026-04-28 16:59 | 58.09763 | 8.02078 | 5290 ft | 180 kts | 202° |
| 2026-04-28 16:59 | 58.08669 | 8.00887 | 5753 ft | 185 kts | 210° |
| 2026-04-28 17:00 | 58.07294 | 8.00496 | 5669 ft | 229 kts | 164° |
| 2026-04-28 17:00 | 58.05892 | 8.02076 | 6102 ft | 242 kts | 134° |
| 2026-04-28 17:00 | 58.04681 | 8.04321 | 6928 ft | 242 kts | 134° |
| 2026-04-28 17:00 | 58.03436 | 8.06560 | 7594 ft | 251 kts | 135° |
| 2026-04-28 17:01 | 58.02091 | 8.08732 | 8320 ft | 255 kts | 139° |
| 2026-04-28 17:01 | 58.00676 | 8.10830 | 9002 ft | 263 kts | 141° |
| 2026-04-28 17:01 | 57.99208 | 8.12927 | 9720 ft | 267 kts | 141° |
| 2026-04-28 17:01 | 57.98230 | 8.14349 | 10205 ft | 269 kts | 140° |
| 2026-04-28 17:02 | 57.96738 | 8.16546 | 10856 ft | 274 kts | 140° |
| 2026-04-28 17:02 | 57.95224 | 8.18777 | 11507 ft | 279 kts | 140° |
| 2026-04-28 17:02 | 57.93685 | 8.21039 | 12162 ft | 283 kts | 139° |
| 2026-04-28 17:02 | 57.92130 | 8.23325 | 12863 ft | 285 kts | 139° |
| 2026-04-28 17:03 | 57.88960 | 8.27986 | 14218 ft | 293 kts | 138° |
| 2026-04-28 17:03 | 57.87344 | 8.30367 | 14810 ft | 297 kts | 138° |
| 2026-04-28 17:03 | 57.85706 | 8.32767 | 15404 ft | 301 kts | 137° |
| 2026-04-28 17:04 | 57.82370 | 8.37651 | 16582 ft | 308 kts | 137° |
| 2026-04-28 17:04 | 57.80673 | 8.40129 | 17165 ft | 311 kts | 136° |
| 2026-04-28 17:05 | 57.77213 | 8.45166 | 18318 ft | 318 kts | 136° |
| 2026-04-28 17:05 | 57.75453 | 8.47727 | 18860 ft | 322 kts | 135° |
| 2026-04-28 17:05 | 57.73836 | 8.50560 | 19341 ft | 314 kts | 115° |
| 2026-04-28 17:06 | 57.72146 | 8.57886 | 20291 ft | 305 kts | 99° |
| 2026-04-28 17:06 | 57.71474 | 8.61662 | 20794 ft | 307 kts | 99° |
| 2026-04-28 17:06 | 57.69936 | 8.69228 | 21766 ft | 314 kts | 102° |
| 2026-04-28 17:07 | 57.69112 | 8.73023 | 22247 ft | 316 kts | 102° |
| 2026-04-28 17:07 | 57.68294 | 8.76850 | 22715 ft | 318 kts | 101° |
| 2026-04-28 17:07 | 57.67382 | 8.80656 | 23153 ft | 329 kts | 112° |
| 2026-04-28 17:07 | 57.65997 | 8.84158 | 23593 ft | 341 kts | 122° |
| 2026-04-28 17:08 | 57.64361 | 8.87425 | 24028 ft | 346 kts | 125° |
| 2026-04-28 17:08 | 57.62688 | 8.90679 | 24394 ft | 348 kts | 124° |
| 2026-04-28 17:08 | 57.61049 | 8.94002 | 24752 ft | 348 kts | 122° |
| 2026-04-28 17:08 | 57.59470 | 8.97396 | 25165 ft | 346 kts | 121° |
| 2026-04-28 17:09 | 57.57891 | 9.00807 | 25513 ft | 348 kts | 121° |
| 2026-04-28 17:09 | 57.56305 | 9.04232 | 25851 ft | 350 kts | 121° |
| 2026-04-28 17:09 | 57.54698 | 9.07669 | 26240 ft | 353 kts | 121° |
| 2026-04-28 17:09 | 57.53075 | 9.11110 | 26558 ft | 355 kts | 121° |
| 2026-04-28 17:10 | 57.51440 | 9.14565 | 26884 ft | 356 kts | 121° |
| 2026-04-28 17:10 | 57.49795 | 9.18029 | 27202 ft | 358 kts | 120° |
| 2026-04-28 17:10 | 57.48143 | 9.21513 | 27514 ft | 360 kts | 120° |